sensor_id;sensor_type;location;lat;lon;timestamp;pressure;altitude;pressure_sealevel;temperature;humidity
15914;BME280;8055;51.930;8.840;2024-03-29T00:00:57;74872.94;;;-145.72;88.66
15914;BME280;8055;51.930;8.840;2024-03-29T00:03:24;74875.00;;;-145.72;87.20
15914;BME280;8055;51.930;8.840;2024-03-29T00:05:49;74862.59;;;-145.72;85.82
15914;BME280;8055;51.930;8.840;2024-03-29T00:08:14;74864.66;;;-145.72;87.67
15914;BME280;8055;51.930;8.840;2024-03-29T00:10:40;74854.31;;;-145.72;87.90
15914;BME280;8055;51.930;8.840;2024-03-29T00:13:05;74848.13;;;-145.72;87.20
15914;BME280;8055;51.930;8.840;2024-03-29T00:15:33;74848.13;;;-145.72;84.91
15914;BME280;8055;51.930;8.840;2024-03-29T00:18:00;74841.91;;;-145.72;84.26
15914;BME280;8055;51.930;8.840;2024-03-29T00:20:25;74848.13;;;-145.72;85.53
15914;BME280;8055;51.930;8.840;2024-03-29T00:22:51;74843.97;;;-145.72;84.70
15914;BME280;8055;51.930;8.840;2024-03-29T00:25:16;74846.06;;;-145.72;84.58
15914;BME280;8055;51.930;8.840;2024-03-29T00:27:42;74850.19;;;-145.72;85.81
15914;BME280;8055;51.930;8.840;2024-03-29T00:30:09;74841.91;;;-145.72;83.15
15914;BME280;8055;51.930;8.840;2024-03-29T00:32:35;74839.84;;;-145.72;82.94
15914;BME280;8055;51.930;8.840;2024-03-29T00:35:00;74854.31;;;-145.72;84.30
15914;BME280;8055;51.930;8.840;2024-03-29T00:37:25;74831.56;;;-145.72;82.13
15914;BME280;8055;51.930;8.840;2024-03-29T00:39:51;74833.63;;;-145.72;82.52
15914;BME280;8055;51.930;8.840;2024-03-29T00:42:16;74831.56;;;-145.72;82.16
15914;BME280;8055;51.930;8.840;2024-03-29T00:44:45;74843.97;;;-145.72;83.54
15914;BME280;8055;51.930;8.840;2024-03-29T00:47:11;74852.25;;;-145.72;83.74
15914;BME280;8055;51.930;8.840;2024-03-29T00:49:36;74860.53;;;-145.72;83.77
15914;BME280;8055;51.930;8.840;2024-03-29T00:52:03;74848.13;;;-145.72;82.43
15914;BME280;8055;51.930;8.840;2024-03-29T00:54:28;74850.19;;;-145.72;82.76
15914;BME280;8055;51.930;8.840;2024-03-29T00:56:54;74852.25;;;-145.72;83.62
15914;BME280;8055;51.930;8.840;2024-03-29T00:59:19;74860.53;;;-145.72;83.16
15914;BME280;8055;51.930;8.840;2024-03-29T01:01:45;74854.31;;;-145.72;82.37
15914;BME280;8055;51.930;8.840;2024-03-29T01:04:11;74856.41;;;-145.72;82.84
15914;BME280;8055;51.930;8.840;2024-03-29T01:06:37;74850.19;;;-145.72;83.40
15914;BME280;8055;51.930;8.840;2024-03-29T01:09:02;74856.41;;;-145.72;82.98
15914;BME280;8055;51.930;8.840;2024-03-29T01:11:29;74848.13;;;-145.72;83.15
15914;BME280;8055;51.930;8.840;2024-03-29T01:13:54;74839.84;;;-145.72;81.24
15914;BME280;8055;51.930;8.840;2024-03-29T01:16:20;74827.44;;;-145.72;79.84
15914;BME280;8055;51.930;8.840;2024-03-29T01:18:45;74841.91;;;-145.72;81.99
15914;BME280;8055;51.930;8.840;2024-03-29T01:21:12;74831.56;;;-145.72;80.92
15914;BME280;8055;51.930;8.840;2024-03-29T01:23:37;74827.44;;;-145.72;80.72
15914;BME280;8055;51.930;8.840;2024-03-29T01:26:04;74837.78;;;-145.72;80.34
15914;BME280;8055;51.930;8.840;2024-03-29T01:28:29;74856.41;;;-145.72;80.25
15914;BME280;8055;51.930;8.840;2024-03-29T01:30:55;74846.06;;;-145.72;79.13
15914;BME280;8055;51.930;8.840;2024-03-29T01:33:21;74848.13;;;-145.72;79.64
15914;BME280;8055;51.930;8.840;2024-03-29T01:35:47;74850.19;;;-145.72;80.70
15914;BME280;8055;51.930;8.840;2024-03-29T01:38:14;74843.97;;;-145.72;78.52
15914;BME280;8055;51.930;8.840;2024-03-29T01:40:39;74831.56;;;-145.72;77.37
15914;BME280;8055;51.930;8.840;2024-03-29T01:43:05;74841.91;;;-145.72;79.49
15914;BME280;8055;51.930;8.840;2024-03-29T01:45:31;74843.97;;;-145.72;79.17
15914;BME280;8055;51.930;8.840;2024-03-29T01:47:56;74835.72;;;-145.72;78.30
15914;BME280;8055;51.930;8.840;2024-03-29T01:50:21;74843.97;;;-145.72;78.87
15914;BME280;8055;51.930;8.840;2024-03-29T01:52:48;74837.78;;;-145.72;78.89
15914;BME280;8055;51.930;8.840;2024-03-29T01:55:15;74837.78;;;-145.72;78.10
15914;BME280;8055;51.930;8.840;2024-03-29T01:57:40;74850.19;;;-145.72;80.06
15914;BME280;8055;51.930;8.840;2024-03-29T02:00:06;74856.41;;;-145.72;78.79
15914;BME280;8055;51.930;8.840;2024-03-29T02:02:33;74864.66;;;-145.72;80.79
15914;BME280;8055;51.930;8.840;2024-03-29T02:04:58;74864.66;;;-145.72;80.40
15914;BME280;8055;51.930;8.840;2024-03-29T02:07:24;74854.31;;;-145.72;79.90
15914;BME280;8055;51.930;8.840;2024-03-29T02:09:50;74858.47;;;-145.72;79.59
15914;BME280;8055;51.930;8.840;2024-03-29T02:12:15;74843.97;;;-145.72;79.17
15914;BME280;8055;51.930;8.840;2024-03-29T02:14:41;74858.47;;;-145.72;80.05
15914;BME280;8055;51.930;8.840;2024-03-29T02:17:08;74856.41;;;-145.72;80.53
15914;BME280;8055;51.930;8.840;2024-03-29T02:19:33;74858.47;;;-145.72;79.79
15914;BME280;8055;51.930;8.840;2024-03-29T02:21:59;74854.31;;;-145.72;79.88
15914;BME280;8055;51.930;8.840;2024-03-29T02:24:26;74850.19;;;-145.72;80.99
15914;BME280;8055;51.930;8.840;2024-03-29T02:26:56;74829.50;;;-145.72;79.46
15914;BME280;8055;51.930;8.840;2024-03-29T02:29:21;74831.56;;;-145.72;79.39
15914;BME280;8055;51.930;8.840;2024-03-29T02:31:47;74833.63;;;-145.72;79.64
15914;BME280;8055;51.930;8.840;2024-03-29T02:34:12;74841.91;;;-145.72;80.28
15914;BME280;8055;51.930;8.840;2024-03-29T02:36:37;74825.38;;;-145.72;79.45
15914;BME280;8055;51.930;8.840;2024-03-29T02:39:03;74831.56;;;-145.72;81.12
15914;BME280;8055;51.930;8.840;2024-03-29T02:41:28;74823.28;;;-145.72;80.26
15914;BME280;8055;51.930;8.840;2024-03-29T02:43:55;74808.81;;;-145.72;79.66
15914;BME280;8055;51.930;8.840;2024-03-29T02:46:21;74806.75;;;-145.72;80.45
15914;BME280;8055;51.930;8.840;2024-03-29T02:48:46;74796.41;;;-145.72;79.80
15914;BME280;8055;51.930;8.840;2024-03-29T02:51:12;74804.69;;;-145.72;80.58
15914;BME280;8055;51.930;8.840;2024-03-29T02:53:37;74796.41;;;-145.72;80.14
15914;BME280;8055;51.930;8.840;2024-03-29T02:56:04;74777.78;;;-145.72;79.06
15914;BME280;8055;51.930;8.840;2024-03-29T02:58:30;74775.72;;;-145.72;79.74
15914;BME280;8055;51.930;8.840;2024-03-29T03:00:55;74761.22;;;-145.72;79.11
15914;BME280;8055;51.930;8.840;2024-03-29T03:03:26;74773.66;;;-145.72;79.96
15914;BME280;8055;51.930;8.840;2024-03-29T03:05:51;74777.78;;;-145.72;79.52
15914;BME280;8055;51.930;8.840;2024-03-29T03:08:19;74773.66;;;-145.72;80.14
15914;BME280;8055;51.930;8.840;2024-03-29T03:11:04;74769.50;;;-145.72;79.11
15914;BME280;8055;51.930;8.840;2024-03-29T03:13:30;74775.72;;;-145.72;80.96
15914;BME280;8055;51.930;8.840;2024-03-29T03:15:56;74784.00;;;-145.72;79.96
15914;BME280;8055;51.930;8.840;2024-03-29T03:18:21;74771.56;;;-145.72;78.83
15914;BME280;8055;51.930;8.840;2024-03-29T03:20:51;74755.03;;;-145.72;79.27
15914;BME280;8055;51.930;8.840;2024-03-29T03:23:16;74757.09;;;-145.72;79.74
15914;BME280;8055;51.930;8.840;2024-03-29T03:25:42;74752.97;;;-145.72;79.89
15914;BME280;8055;51.930;8.840;2024-03-29T03:28:07;74752.97;;;-145.72;79.56
15914;BME280;8055;51.930;8.840;2024-03-29T03:30:33;74755.03;;;-145.72;79.19
15914;BME280;8055;51.930;8.840;2024-03-29T03:33:02;74748.81;;;-145.72;79.21
15914;BME280;8055;51.930;8.840;2024-03-29T03:35:28;74744.69;;;-145.72;77.73
15914;BME280;8055;51.930;8.840;2024-03-29T03:37:53;74738.47;;;-145.72;77.23
15914;BME280;8055;51.930;8.840;2024-03-29T03:40:18;74734.34;;;-145.72;78.01
15914;BME280;8055;51.930;8.840;2024-03-29T03:42:44;74736.41;;;-145.72;77.41
15914;BME280;8055;51.930;8.840;2024-03-29T03:45:10;74740.56;;;-145.72;77.52
15914;BME280;8055;51.930;8.840;2024-03-29T03:47:35;74742.63;;;-145.72;77.97
15914;BME280;8055;51.930;8.840;2024-03-29T03:50:00;74748.81;;;-145.72;77.12
15914;BME280;8055;51.930;8.840;2024-03-29T03:52:26;74726.06;;;-145.72;74.92
15914;BME280;8055;51.930;8.840;2024-03-29T03:54:51;74724.00;;;-145.72;75.88
15914;BME280;8055;51.930;8.840;2024-03-29T03:57:16;74726.06;;;-145.72;76.92
15914;BME280;8055;51.930;8.840;2024-03-29T03:59:42;74726.06;;;-145.72;75.72
15914;BME280;8055;51.930;8.840;2024-03-29T04:02:07;74713.66;;;-145.72;74.39
15914;BME280;8055;51.930;8.840;2024-03-29T04:04:32;74717.78;;;-145.72;74.43
15914;BME280;8055;51.930;8.840;2024-03-29T04:06:58;74736.41;;;-145.72;76.95
15914;BME280;8055;51.930;8.840;2024-03-29T04:09:23;74732.28;;;-145.72;75.98
15914;BME280;8055;51.930;8.840;2024-03-29T04:11:48;74740.56;;;-145.72;78.09
15914;BME280;8055;51.930;8.840;2024-03-29T04:14:14;74748.81;;;-145.72;77.88
15914;BME280;8055;51.930;8.840;2024-03-29T04:16:39;74769.50;;;-145.72;81.11
15914;BME280;8055;51.930;8.840;2024-03-29T04:19:05;74763.31;;;-145.72;81.21
15914;BME280;8055;51.930;8.840;2024-03-29T04:21:30;74777.78;;;-145.72;81.57
15914;BME280;8055;51.930;8.840;2024-03-29T04:23:55;74792.25;;;-145.72;84.90
15914;BME280;8055;51.930;8.840;2024-03-29T04:26:22;74794.34;;;-145.72;83.94
15914;BME280;8055;51.930;8.840;2024-03-29T04:28:47;74815.03;;;-145.72;87.18
15914;BME280;8055;51.930;8.840;2024-03-29T04:31:12;74812.94;;;-145.72;87.06
15914;BME280;8055;51.930;8.840;2024-03-29T04:33:38;74825.38;;;-145.72;89.61
15914;BME280;8055;51.930;8.840;2024-03-29T04:36:04;74839.84;;;-145.72;91.93
15914;BME280;8055;51.930;8.840;2024-03-29T04:38:30;74841.91;;;-145.72;94.77
15914;BME280;8055;51.930;8.840;2024-03-29T04:40:57;74860.53;;;-145.72;95.89
15914;BME280;8055;51.930;8.840;2024-03-29T04:43:27;74854.31;;;-145.72;97.47
15914;BME280;8055;51.930;8.840;2024-03-29T04:46:12;74858.47;;;-145.72;97.39
15914;BME280;8055;51.930;8.840;2024-03-29T04:48:39;74872.94;;;-145.72;98.00
15914;BME280;8055;51.930;8.840;2024-03-29T04:51:05;74879.16;;;-145.72;100.00
15914;BME280;8055;51.930;8.840;2024-03-29T04:53:31;74901.91;;;-145.72;100.00
15914;BME280;8055;51.930;8.840;2024-03-29T04:55:57;74918.47;;;-145.72;100.00
15914;BME280;8055;51.930;8.840;2024-03-29T04:58:24;74918.47;;;-145.72;100.00
15914;BME280;8055;51.930;8.840;2024-03-29T05:00:50;74912.25;;;-145.72;100.00
15914;BME280;8055;51.930;8.840;2024-03-29T05:03:20;74910.19;;;-145.72;100.00
15914;BME280;8055;51.930;8.840;2024-03-29T05:05:45;74899.84;;;-145.72;100.00
15914;BME280;8055;51.930;8.840;2024-03-29T05:08:11;74908.13;;;-145.72;100.00
15914;BME280;8055;51.930;8.840;2024-03-29T05:10:36;74897.78;;;-145.72;100.00
15914;BME280;8055;51.930;8.840;2024-03-29T05:13:02;74901.91;;;-145.72;100.00
15914;BME280;8055;51.930;8.840;2024-03-29T05:15:28;74920.53;;;-145.72;100.00
15914;BME280;8055;51.930;8.840;2024-03-29T05:17:54;74910.19;;;-145.72;100.00
15914;BME280;8055;51.930;8.840;2024-03-29T05:20:19;74914.31;;;-145.72;100.00
15914;BME280;8055;51.930;8.840;2024-03-29T05:22:45;74914.31;;;-145.72;100.00
15914;BME280;8055;51.930;8.840;2024-03-29T05:25:10;74912.25;;;-145.72;100.00
15914;BME280;8055;51.930;8.840;2024-03-29T05:27:36;74914.31;;;-145.72;100.00
15914;BME280;8055;51.930;8.840;2024-03-29T05:30:02;74912.25;;;-145.72;100.00
15914;BME280;8055;51.930;8.840;2024-03-29T05:32:29;74910.19;;;-145.72;100.00
15914;BME280;8055;51.930;8.840;2024-03-29T05:34:54;74920.53;;;-145.72;100.00
15914;BME280;8055;51.930;8.840;2024-03-29T05:37:20;74908.13;;;-145.72;100.00
15914;BME280;8055;51.930;8.840;2024-03-29T05:39:45;74918.47;;;-145.72;100.00
15914;BME280;8055;51.930;8.840;2024-03-29T05:42:12;74922.59;;;-145.72;100.00
15914;BME280;8055;51.930;8.840;2024-03-29T05:44:37;74928.81;;;-145.72;100.00
15914;BME280;8055;51.930;8.840;2024-03-29T05:47:03;74926.72;;;-145.72;100.00
15914;BME280;8055;51.930;8.840;2024-03-29T05:49:30;74926.72;;;-145.72;100.00
15914;BME280;8055;51.930;8.840;2024-03-29T05:51:56;74922.59;;;-145.72;100.00
15914;BME280;8055;51.930;8.840;2024-03-29T05:54:21;74914.31;;;-145.72;100.00
15914;BME280;8055;51.930;8.840;2024-03-29T05:56:48;74910.19;;;-145.72;100.00
15914;BME280;8055;51.930;8.840;2024-03-29T05:59:13;74914.31;;;-145.72;100.00
15914;BME280;8055;51.930;8.840;2024-03-29T06:01:39;74916.38;;;-145.72;100.00
15914;BME280;8055;51.930;8.840;2024-03-29T06:04:04;74908.13;;;-145.72;100.00
15914;BME280;8055;51.930;8.840;2024-03-29T06:06:34;74906.03;;;-145.72;100.00
15914;BME280;8055;51.930;8.840;2024-03-29T06:08:59;74903.97;;;-145.72;100.00
15914;BME280;8055;51.930;8.840;2024-03-29T06:11:25;74899.84;;;-145.72;100.00
15914;BME280;8055;51.930;8.840;2024-03-29T06:13:50;74899.84;;;-145.72;100.00
15914;BME280;8055;51.930;8.840;2024-03-29T06:16:23;74891.56;;;-145.72;100.00
15914;BME280;8055;51.930;8.840;2024-03-29T06:19:07;74885.34;;;-145.72;100.00
15914;BME280;8055;51.930;8.840;2024-03-29T06:21:33;74881.22;;;-145.72;100.00
15914;BME280;8055;51.930;8.840;2024-03-29T06:24:08;74885.34;;;-145.72;100.00
15914;BME280;8055;51.930;8.840;2024-03-29T06:26:34;74879.16;;;-145.72;100.00
15914;BME280;8055;51.930;8.840;2024-03-29T06:29:00;74883.28;;;-145.72;100.00
15914;BME280;8055;51.930;8.840;2024-03-29T06:31:26;74879.16;;;-145.72;100.00
15914;BME280;8055;51.930;8.840;2024-03-29T06:33:53;74879.16;;;-145.72;100.00
15914;BME280;8055;51.930;8.840;2024-03-29T06:36:19;74872.94;;;-145.72;100.00
15914;BME280;8055;51.930;8.840;2024-03-29T06:38:44;74864.66;;;-145.72;100.00
15914;BME280;8055;51.930;8.840;2024-03-29T06:41:09;74868.81;;;-145.72;100.00
15914;BME280;8055;51.930;8.840;2024-03-29T06:43:35;74860.53;;;-145.72;100.00
15914;BME280;8055;51.930;8.840;2024-03-29T06:46:00;74864.66;;;-145.72;100.00
15914;BME280;8055;51.930;8.840;2024-03-29T06:48:28;74875.00;;;-145.72;100.00
15914;BME280;8055;51.930;8.840;2024-03-29T06:50:53;74881.22;;;-145.72;100.00
15914;BME280;8055;51.930;8.840;2024-03-29T06:53:19;74881.22;;;-145.72;100.00
15914;BME280;8055;51.930;8.840;2024-03-29T06:55:45;74872.94;;;-145.72;100.00
15914;BME280;8055;51.930;8.840;2024-03-29T06:58:11;74872.94;;;-145.72;100.00
15914;BME280;8055;51.930;8.840;2024-03-29T07:00:36;74872.94;;;-145.72;100.00
15914;BME280;8055;51.930;8.840;2024-03-29T07:03:01;74870.88;;;-145.72;100.00
15914;BME280;8055;51.930;8.840;2024-03-29T07:05:27;74860.53;;;-145.72;100.00
15914;BME280;8055;51.930;8.840;2024-03-29T07:07:52;74868.81;;;-145.72;100.00
15914;BME280;8055;51.930;8.840;2024-03-29T07:10:19;74856.41;;;-145.72;100.00
15914;BME280;8055;51.930;8.840;2024-03-29T07:12:44;74839.84;;;-145.72;100.00
15914;BME280;8055;51.930;8.840;2024-03-29T07:15:09;74831.56;;;-145.72;100.00
15914;BME280;8055;51.930;8.840;2024-03-29T07:17:35;74815.03;;;-145.72;100.00
15914;BME280;8055;51.930;8.840;2024-03-29T07:20:00;74817.09;;;-145.72;100.00
15914;BME280;8055;51.930;8.840;2024-03-29T07:22:25;74810.88;;;-145.72;100.00
15914;BME280;8055;51.930;8.840;2024-03-29T07:24:53;74800.53;;;-145.72;100.00
15914;BME280;8055;51.930;8.840;2024-03-29T07:27:18;74790.19;;;-145.72;100.00
15914;BME280;8055;51.930;8.840;2024-03-29T07:29:45;74777.78;;;-145.72;100.00
15914;BME280;8055;51.930;8.840;2024-03-29T07:32:11;74775.72;;;-145.72;100.00
15914;BME280;8055;51.930;8.840;2024-03-29T07:34:36;74771.56;;;-145.72;100.00
15914;BME280;8055;51.930;8.840;2024-03-29T07:37:05;74755.03;;;-145.72;100.00
15914;BME280;8055;51.930;8.840;2024-03-29T07:39:30;74757.09;;;-145.72;100.00
15914;BME280;8055;51.930;8.840;2024-03-29T07:41:56;74748.81;;;-145.72;100.00
15914;BME280;8055;51.930;8.840;2024-03-29T07:44:21;74750.88;;;-145.72;100.00
15914;BME280;8055;51.930;8.840;2024-03-29T07:46:46;74742.63;;;-145.72;100.00
15914;BME280;8055;51.930;8.840;2024-03-29T07:49:14;74757.09;;;-145.72;100.00
15914;BME280;8055;51.930;8.840;2024-03-29T07:51:39;74750.88;;;-145.72;100.00
15914;BME280;8055;51.930;8.840;2024-03-29T07:54:04;74744.69;;;-145.72;100.00
15914;BME280;8055;51.930;8.840;2024-03-29T07:56:30;74736.41;;;-145.72;100.00
15914;BME280;8055;51.930;8.840;2024-03-29T07:58:55;74730.22;;;-145.72;100.00
15914;BME280;8055;51.930;8.840;2024-03-29T08:01:21;74713.66;;;-145.72;100.00
15914;BME280;8055;51.930;8.840;2024-03-29T08:03:49;74707.44;;;-145.72;100.00
15914;BME280;8055;51.930;8.840;2024-03-29T08:06:15;74707.44;;;-145.72;100.00
15914;BME280;8055;51.930;8.840;2024-03-29T08:08:43;74709.53;;;-145.72;100.00
15914;BME280;8055;51.930;8.840;2024-03-29T08:11:08;74709.53;;;-145.72;100.00
15914;BME280;8055;51.930;8.840;2024-03-29T08:13:35;74688.84;;;-145.72;100.00
15914;BME280;8055;51.930;8.840;2024-03-29T08:16:01;74697.09;;;-145.72;100.00
15914;BME280;8055;51.930;8.840;2024-03-29T08:18:27;74682.63;;;-145.72;100.00
15914;BME280;8055;51.930;8.840;2024-03-29T08:20:53;74688.84;;;-145.72;100.00
15914;BME280;8055;51.930;8.840;2024-03-29T08:23:23;74672.28;;;-145.72;100.00
15914;BME280;8055;51.930;8.840;2024-03-29T08:25:48;74692.97;;;-145.72;100.00
15914;BME280;8055;51.930;8.840;2024-03-29T08:28:14;74666.06;;;-145.72;100.00
15914;BME280;8055;51.930;8.840;2024-03-29T08:30:40;74674.34;;;-145.72;100.00
15914;BME280;8055;51.930;8.840;2024-03-29T08:33:05;74682.63;;;-145.72;100.00
15914;BME280;8055;51.930;8.840;2024-03-29T08:35:32;74692.97;;;-145.72;100.00
15914;BME280;8055;51.930;8.840;2024-03-29T08:37:58;74688.84;;;-145.72;100.00
15914;BME280;8055;51.930;8.840;2024-03-29T08:40:26;74697.09;;;-145.72;100.00
15914;BME280;8055;51.930;8.840;2024-03-29T08:42:54;74707.44;;;-145.72;100.00
15914;BME280;8055;51.930;8.840;2024-03-29T08:45:20;74705.38;;;-145.72;100.00
15914;BME280;8055;51.930;8.840;2024-03-29T08:47:46;74705.38;;;-145.72;100.00
15914;BME280;8055;51.930;8.840;2024-03-29T08:50:11;74699.19;;;-145.72;100.00
15914;BME280;8055;51.930;8.840;2024-03-29T08:52:38;74699.19;;;-145.72;100.00
15914;BME280;8055;51.930;8.840;2024-03-29T08:55:05;74682.63;;;-145.72;100.00
15914;BME280;8055;51.930;8.840;2024-03-29T08:57:30;74680.56;;;-145.72;100.00
15914;BME280;8055;51.930;8.840;2024-03-29T08:59:56;74661.94;;;-145.72;100.00
15914;BME280;8055;51.930;8.840;2024-03-29T09:02:21;74653.66;;;-145.72;100.00
15914;BME280;8055;51.930;8.840;2024-03-29T09:04:46;74655.72;;;-145.72;100.00
15914;BME280;8055;51.930;8.840;2024-03-29T09:07:12;74632.97;;;-145.72;100.00
15914;BME280;8055;51.930;8.840;2024-03-29T09:09:37;74622.63;;;-145.72;100.00
15914;BME280;8055;51.930;8.840;2024-03-29T09:12:06;74591.59;;;-145.72;100.00
15914;BME280;8055;51.930;8.840;2024-03-29T09:14:32;74558.50;;;-145.72;100.00
15914;BME280;8055;51.930;8.840;2024-03-29T09:16:58;74554.38;;;-145.72;100.00
15914;BME280;8055;51.930;8.840;2024-03-29T09:19:23;74537.81;;;-145.72;100.00
15914;BME280;8055;51.930;8.840;2024-03-29T09:21:49;74527.47;;;-145.72;100.00
15914;BME280;8055;51.930;8.840;2024-03-29T09:24:15;74513.00;;;-145.72;100.00
15914;BME280;8055;51.930;8.840;2024-03-29T09:26:42;74513.00;;;-145.72;100.00
15914;BME280;8055;51.930;8.840;2024-03-29T09:29:08;74496.44;;;-145.72;100.00
15914;BME280;8055;51.930;8.840;2024-03-29T09:31:34;74488.19;;;-145.72;100.00
15914;BME280;8055;51.930;8.840;2024-03-29T09:34:00;74477.84;;;-145.72;100.00
15914;BME280;8055;51.930;8.840;2024-03-29T09:36:25;74471.63;;;-145.72;100.00
15914;BME280;8055;51.930;8.840;2024-03-29T09:38:51;74457.16;;;-145.72;100.00
15914;BME280;8055;51.930;8.840;2024-03-29T09:41:18;74430.25;;;-145.72;100.00
15914;BME280;8055;51.930;8.840;2024-03-29T09:43:46;74413.72;;;-145.72;100.00
15914;BME280;8055;51.930;8.840;2024-03-29T09:46:15;74399.22;;;-145.72;100.00
15914;BME280;8055;51.930;8.840;2024-03-29T09:48:41;74401.28;;;-145.72;100.00
15914;BME280;8055;51.930;8.840;2024-03-29T09:51:08;74393.03;;;-145.72;100.00
15914;BME280;8055;51.930;8.840;2024-03-29T09:53:35;74372.34;;;-145.72;100.00
15914;BME280;8055;51.930;8.840;2024-03-29T09:56:04;74372.34;;;-145.72;100.00
15914;BME280;8055;51.930;8.840;2024-03-29T09:58:31;74355.78;;;-145.72;100.00
15914;BME280;8055;51.930;8.840;2024-03-29T10:00:57;74343.38;;;-145.72;100.00
15914;BME280;8055;51.930;8.840;2024-03-29T10:03:27;74320.63;;;-145.72;100.00
15914;BME280;8055;51.930;8.840;2024-03-29T10:05:57;74304.06;;;-145.72;100.00
15914;BME280;8055;51.930;8.840;2024-03-29T10:08:27;74299.94;;;-145.72;99.23
15914;BME280;8055;51.930;8.840;2024-03-29T10:10:54;74302.00;;;-145.72;97.57
15914;BME280;8055;51.930;8.840;2024-03-29T10:13:19;74302.00;;;-145.72;97.14
15914;BME280;8055;51.930;8.840;2024-03-29T10:15:44;74299.94;;;-145.72;96.56
15914;BME280;8055;51.930;8.840;2024-03-29T10:18:15;74291.66;;;-145.72;100.00
15914;BME280;8055;51.930;8.840;2024-03-29T10:20:40;74283.41;;;-145.72;97.28
15914;BME280;8055;51.930;8.840;2024-03-29T10:23:05;74289.59;;;-145.72;96.12
15914;BME280;8055;51.930;8.840;2024-03-29T10:25:32;74308.22;;;-145.72;96.75
15914;BME280;8055;51.930;8.840;2024-03-29T10:28:00;74293.72;;;-145.72;96.21
15914;BME280;8055;51.930;8.840;2024-03-29T10:30:28;74293.72;;;-145.72;97.33
15914;BME280;8055;51.930;8.840;2024-03-29T10:32:56;74287.53;;;-145.72;96.05
15914;BME280;8055;51.930;8.840;2024-03-29T10:35:22;74289.59;;;-145.72;93.56
15914;BME280;8055;51.930;8.840;2024-03-29T10:37:48;74297.88;;;-145.72;96.56
15914;BME280;8055;51.930;8.840;2024-03-29T10:40:13;74302.00;;;-145.72;97.28
15914;BME280;8055;51.930;8.840;2024-03-29T10:42:41;74314.41;;;-145.72;98.16
15914;BME280;8055;51.930;8.840;2024-03-29T10:45:07;74324.75;;;-145.72;97.83
15914;BME280;8055;51.930;8.840;2024-03-29T10:47:33;74322.69;;;-145.72;98.45
15914;BME280;8055;51.930;8.840;2024-03-29T10:49:59;74330.97;;;-145.72;98.79
15914;BME280;8055;51.930;8.840;2024-03-29T10:52:25;74339.25;;;-145.72;96.52
15914;BME280;8055;51.930;8.840;2024-03-29T10:54:51;74339.25;;;-145.72;98.65
15914;BME280;8055;51.930;8.840;2024-03-29T10:57:25;74322.69;;;-145.72;99.17
15914;BME280;8055;51.930;8.840;2024-03-29T11:00:08;74310.28;;;-145.72;97.28
15914;BME280;8055;51.930;8.840;2024-03-29T11:02:57;74299.94;;;-145.72;97.00
15914;BME280;8055;51.930;8.840;2024-03-29T11:05:28;74275.13;;;-145.72;98.68
15914;BME280;8055;51.930;8.840;2024-03-29T11:07:55;74258.56;;;-145.72;97.90
15914;BME280;8055;51.930;8.840;2024-03-29T11:10:39;74256.50;;;-145.72;96.69
15914;BME280;8055;51.930;8.840;2024-03-29T11:15:55;74285.47;;;-145.72;97.33
15914;BME280;8055;51.930;8.840;2024-03-29T11:18:21;74291.66;;;-145.72;98.53
15914;BME280;8055;51.930;8.840;2024-03-29T11:20:49;74302.00;;;-145.72;98.47
15914;BME280;8055;51.930;8.840;2024-03-29T11:23:20;74304.06;;;-145.72;99.73
15914;BME280;8055;51.930;8.840;2024-03-29T11:25:49;74326.84;;;-145.72;98.16
15914;BME280;8055;51.930;8.840;2024-03-29T11:28:27;74312.34;;;-145.72;98.54
15914;BME280;8055;51.930;8.840;2024-03-29T11:30:59;74308.22;;;-145.72;99.71
15914;BME280;8055;51.930;8.840;2024-03-29T11:33:31;74324.75;;;-145.72;99.84
15914;BME280;8055;51.930;8.840;2024-03-29T11:35:57;74289.59;;;-145.72;98.28
15914;BME280;8055;51.930;8.840;2024-03-29T11:38:34;74275.13;;;-145.72;100.00
15914;BME280;8055;51.930;8.840;2024-03-29T11:41:12;74262.72;;;-145.72;96.68
15914;BME280;8055;51.930;8.840;2024-03-29T11:43:38;74262.72;;;-145.72;97.27
15914;BME280;8055;51.930;8.840;2024-03-29T11:46:06;74252.38;;;-145.72;96.76
15914;BME280;8055;51.930;8.840;2024-03-29T11:48:32;74244.09;;;-145.72;98.90
15914;BME280;8055;51.930;8.840;2024-03-29T11:50:59;74250.28;;;-145.72;96.15
15914;BME280;8055;51.930;8.840;2024-03-29T11:53:25;74256.50;;;-145.72;98.04
15914;BME280;8055;51.930;8.840;2024-03-29T11:55:53;74239.94;;;-145.72;97.26
15914;BME280;8055;51.930;8.840;2024-03-29T11:58:23;74233.75;;;-145.72;93.75
15914;BME280;8055;51.930;8.840;2024-03-29T12:00:49;74244.09;;;-145.72;97.38
15914;BME280;8055;51.930;8.840;2024-03-29T12:03:16;74246.16;;;-145.72;96.91
15914;BME280;8055;51.930;8.840;2024-03-29T12:05:46;74248.22;;;-145.72;96.17
15914;BME280;8055;51.930;8.840;2024-03-29T12:08:12;74250.28;;;-145.72;95.74
15914;BME280;8055;51.930;8.840;2024-03-29T12:10:38;74264.78;;;-145.72;97.41
15914;BME280;8055;51.930;8.840;2024-03-29T12:13:07;74273.06;;;-145.72;95.76
15914;BME280;8055;51.930;8.840;2024-03-29T12:15:33;74289.59;;;-145.72;94.58
15914;BME280;8055;51.930;8.840;2024-03-29T12:18:01;74310.28;;;-145.72;98.23
15914;BME280;8055;51.930;8.840;2024-03-29T12:20:33;74318.56;;;-145.72;97.72
15914;BME280;8055;51.930;8.840;2024-03-29T12:23:02;74318.56;;;-145.72;97.85
15914;BME280;8055;51.930;8.840;2024-03-29T12:25:28;74318.56;;;-145.72;99.47
15914;BME280;8055;51.930;8.840;2024-03-29T12:27:54;74310.28;;;-145.72;100.00
15914;BME280;8055;51.930;8.840;2024-03-29T12:30:20;74287.53;;;-145.72;99.67
15914;BME280;8055;51.930;8.840;2024-03-29T12:32:45;74291.66;;;-145.72;98.47
15914;BME280;8055;51.930;8.840;2024-03-29T12:35:13;74293.72;;;-145.72;98.45
15914;BME280;8055;51.930;8.840;2024-03-29T12:37:50;74248.22;;;-145.72;99.74
15914;BME280;8055;51.930;8.840;2024-03-29T12:40:16;74227.53;;;-145.72;98.23
15914;BME280;8055;51.930;8.840;2024-03-29T12:42:50;74229.63;;;-145.72;94.36
15914;BME280;8055;51.930;8.840;2024-03-29T12:45:16;74250.28;;;-145.72;95.59